sensor_id;sensor_type;location;lat;lon;timestamp;P1;durP1;ratioP1;P2;durP2;ratioP2
10677;SDS011;5387;48.722;9.110;2023-11-19T00:01:08;2.63;;;2.00;;
10677;SDS011;5387;48.722;9.110;2023-11-19T00:03:36;4.40;;;2.87;;
10677;SDS011;5387;48.722;9.110;2023-11-19T00:06:03;2.23;;;2.03;;
10677;SDS011;5387;48.722;9.110;2023-11-19T00:08:30;3.30;;;2.20;;
10677;SDS011;5387;48.722;9.110;2023-11-19T00:10:57;4.60;;;2.40;;
10677;SDS011;5387;48.722;9.110;2023-11-19T00:13:24;2.10;;;1.90;;
10677;SDS011;5387;48.722;9.110;2023-11-19T00:15:51;2.63;;;2.23;;
10677;SDS011;5387;48.722;9.110;2023-11-19T00:18:18;3.60;;;2.37;;
10677;SDS011;5387;48.722;9.110;2023-11-19T00:20:47;3.40;;;2.13;;
10677;SDS011;5387;48.722;9.110;2023-11-19T00:23:14;3.30;;;2.03;;
10677;SDS011;5387;48.722;9.110;2023-11-19T00:25:40;6.13;;;2.03;;
10677;SDS011;5387;48.722;9.110;2023-11-19T00:28:07;2.27;;;2.07;;
10677;SDS011;5387;48.722;9.110;2023-11-19T00:30:34;2.20;;;2.10;;
10677;SDS011;5387;48.722;9.110;2023-11-19T00:33:01;6.43;;;2.40;;
10677;SDS011;5387;48.722;9.110;2023-11-19T00:35:27;2.03;;;1.83;;
10677;SDS011;5387;48.722;9.110;2023-11-19T00:37:58;2.30;;;2.10;;
10677;SDS011;5387;48.722;9.110;2023-11-19T00:40:25;3.43;;;1.93;;
10677;SDS011;5387;48.722;9.110;2023-11-19T00:42:52;2.47;;;1.97;;
10677;SDS011;5387;48.722;9.110;2023-11-19T00:45:19;2.27;;;2.07;;
10677;SDS011;5387;48.722;9.110;2023-11-19T00:47:46;5.40;;;2.20;;
10677;SDS011;5387;48.722;9.110;2023-11-19T00:50:12;3.93;;;2.33;;
10677;SDS011;5387;48.722;9.110;2023-11-19T00:52:39;4.30;;;2.37;;
10677;SDS011;5387;48.722;9.110;2023-11-19T00:55:07;2.10;;;1.90;;
10677;SDS011;5387;48.722;9.110;2023-11-19T00:57:35;2.27;;;1.80;;
10677;SDS011;5387;48.722;9.110;2023-11-19T01:00:02;2.53;;;2.00;;
10677;SDS011;5387;48.722;9.110;2023-11-19T01:02:34;1.60;;;1.50;;
10677;SDS011;5387;48.722;9.110;2023-11-19T01:05:00;2.53;;;1.50;;
10677;SDS011;5387;48.722;9.110;2023-11-19T01:07:27;2.03;;;1.80;;
10677;SDS011;5387;48.722;9.110;2023-11-19T01:09:54;3.40;;;1.80;;
10677;SDS011;5387;48.722;9.110;2023-11-19T01:12:22;2.50;;;2.07;;
10677;SDS011;5387;48.722;9.110;2023-11-19T01:14:49;1.40;;;1.30;;
10677;SDS011;5387;48.722;9.110;2023-11-19T01:17:16;1.30;;;1.20;;
10677;SDS011;5387;48.722;9.110;2023-11-19T01:19:43;1.10;;;1.10;;
10677;SDS011;5387;48.722;9.110;2023-11-19T01:22:10;1.00;;;1.00;;
10677;SDS011;5387;48.722;9.110;2023-11-19T01:24:37;1.10;;;1.10;;
10677;SDS011;5387;48.722;9.110;2023-11-19T01:27:03;1.03;;;0.90;;
10677;SDS011;5387;48.722;9.110;2023-11-19T01:29:32;1.23;;;1.13;;
10677;SDS011;5387;48.722;9.110;2023-11-19T01:31:58;1.10;;;1.00;;
10677;SDS011;5387;48.722;9.110;2023-11-19T01:34:25;1.50;;;1.07;;
10677;SDS011;5387;48.722;9.110;2023-11-19T01:36:52;1.20;;;1.10;;
10677;SDS011;5387;48.722;9.110;2023-11-19T01:39:19;1.20;;;1.10;;
10677;SDS011;5387;48.722;9.110;2023-11-19T01:41:46;0.90;;;0.90;;
10677;SDS011;5387;48.722;9.110;2023-11-19T01:44:13;1.00;;;1.00;;
10677;SDS011;5387;48.722;9.110;2023-11-19T01:46:41;0.70;;;0.70;;
10677;SDS011;5387;48.722;9.110;2023-11-19T01:49:10;1.00;;;1.00;;
10677;SDS011;5387;48.722;9.110;2023-11-19T01:51:38;0.97;;;0.97;;
10677;SDS011;5387;48.722;9.110;2023-11-19T01:54:05;0.90;;;0.90;;
10677;SDS011;5387;48.722;9.110;2023-11-19T01:56:33;0.80;;;0.80;;
10677;SDS011;5387;48.722;9.110;2023-11-19T01:59:01;0.90;;;0.90;;
10677;SDS011;5387;48.722;9.110;2023-11-19T02:01:28;0.97;;;0.97;;
10677;SDS011;5387;48.722;9.110;2023-11-19T02:03:58;2.77;;;0.80;;
10677;SDS011;5387;48.722;9.110;2023-11-19T02:06:25;0.80;;;0.80;;
10677;SDS011;5387;48.722;9.110;2023-11-19T02:08:53;0.80;;;0.80;;
10677;SDS011;5387;48.722;9.110;2023-11-19T02:11:20;2.13;;;0.77;;
10677;SDS011;5387;48.722;9.110;2023-11-19T02:13:47;0.70;;;0.70;;
10677;SDS011;5387;48.722;9.110;2023-11-19T02:16:14;1.23;;;0.80;;
10677;SDS011;5387;48.722;9.110;2023-11-19T02:18:41;0.80;;;0.80;;
10677;SDS011;5387;48.722;9.110;2023-11-19T02:21:09;1.70;;;1.40;;
10677;SDS011;5387;48.722;9.110;2023-11-19T02:23:36;2.40;;;1.90;;
10677;SDS011;5387;48.722;9.110;2023-11-19T02:26:05;0.97;;;0.80;;
10677;SDS011;5387;48.722;9.110;2023-11-19T02:28:41;0.80;;;0.80;;
10677;SDS011;5387;48.722;9.110;2023-11-19T02:31:09;3.90;;;0.80;;
10677;SDS011;5387;48.722;9.110;2023-11-19T02:33:36;0.70;;;0.70;;
10677;SDS011;5387;48.722;9.110;2023-11-19T02:36:03;0.70;;;0.70;;
10677;SDS011;5387;48.722;9.110;2023-11-19T02:38:32;0.60;;;0.60;;
10677;SDS011;5387;48.722;9.110;2023-11-19T02:40:59;0.80;;;0.80;;
10677;SDS011;5387;48.722;9.110;2023-11-19T02:43:27;0.70;;;0.70;;
10677;SDS011;5387;48.722;9.110;2023-11-19T02:45:57;2.23;;;0.70;;
10677;SDS011;5387;48.722;9.110;2023-11-19T02:48:24;0.77;;;0.77;;
10677;SDS011;5387;48.722;9.110;2023-11-19T02:50:51;0.70;;;0.70;;
10677;SDS011;5387;48.722;9.110;2023-11-19T02:53:17;1.80;;;0.80;;
10677;SDS011;5387;48.722;9.110;2023-11-19T02:55:47;0.70;;;0.70;;
10677;SDS011;5387;48.722;9.110;2023-11-19T02:58:15;2.73;;;0.77;;
10677;SDS011;5387;48.722;9.110;2023-11-19T03:00:48;0.70;;;0.70;;
10677;SDS011;5387;48.722;9.110;2023-11-19T03:03:24;3.40;;;0.80;;
10677;SDS011;5387;48.722;9.110;2023-11-19T03:05:53;4.87;;;1.00;;
10677;SDS011;5387;48.722;9.110;2023-11-19T03:08:20;0.60;;;0.60;;
10677;SDS011;5387;48.722;9.110;2023-11-19T03:10:48;0.80;;;0.80;;
10677;SDS011;5387;48.722;9.110;2023-11-19T03:13:15;0.70;;;0.70;;
10677;SDS011;5387;48.722;9.110;2023-11-19T03:15:43;1.30;;;0.83;;
10677;SDS011;5387;48.722;9.110;2023-11-19T03:18:09;1.70;;;0.70;;
10677;SDS011;5387;48.722;9.110;2023-11-19T03:20:37;0.70;;;0.70;;
10677;SDS011;5387;48.722;9.110;2023-11-19T03:23:05;1.20;;;1.10;;
10677;SDS011;5387;48.722;9.110;2023-11-19T03:25:32;8.40;;;1.20;;
10677;SDS011;5387;48.722;9.110;2023-11-19T03:27:59;1.20;;;1.00;;
10677;SDS011;5387;48.722;9.110;2023-11-19T03:30:27;0.73;;;0.73;;
10677;SDS011;5387;48.722;9.110;2023-11-19T03:32:54;0.60;;;0.60;;
10677;SDS011;5387;48.722;9.110;2023-11-19T03:35:21;0.70;;;0.70;;
10677;SDS011;5387;48.722;9.110;2023-11-19T03:37:49;0.70;;;0.70;;
10677;SDS011;5387;48.722;9.110;2023-11-19T03:40:16;0.70;;;0.70;;
10677;SDS011;5387;48.722;9.110;2023-11-19T03:42:44;1.00;;;0.80;;
10677;SDS011;5387;48.722;9.110;2023-11-19T03:45:11;0.70;;;0.70;;
10677;SDS011;5387;48.722;9.110;2023-11-19T03:47:38;1.70;;;0.60;;
10677;SDS011;5387;48.722;9.110;2023-11-19T03:50:05;0.70;;;0.70;;
10677;SDS011;5387;48.722;9.110;2023-11-19T03:52:33;0.70;;;0.70;;
10677;SDS011;5387;48.722;9.110;2023-11-19T03:55:01;2.50;;;0.80;;
10677;SDS011;5387;48.722;9.110;2023-11-19T03:57:30;3.40;;;0.70;;
10677;SDS011;5387;48.722;9.110;2023-11-19T03:59:56;0.60;;;0.60;;
10677;SDS011;5387;48.722;9.110;2023-11-19T04:02:24;0.60;;;0.60;;
10677;SDS011;5387;48.722;9.110;2023-11-19T04:04:53;0.70;;;0.70;;
10677;SDS011;5387;48.722;9.110;2023-11-19T04:07:20;1.17;;;0.80;;
10677;SDS011;5387;48.722;9.110;2023-11-19T04:09:47;0.60;;;0.60;;
10677;SDS011;5387;48.722;9.110;2023-11-19T04:12:15;0.63;;;0.63;;
10677;SDS011;5387;48.722;9.110;2023-11-19T04:14:42;0.80;;;0.80;;
10677;SDS011;5387;48.722;9.110;2023-11-19T04:17:09;0.70;;;0.70;;
10677;SDS011;5387;48.722;9.110;2023-11-19T04:19:36;0.70;;;0.70;;
10677;SDS011;5387;48.722;9.110;2023-11-19T04:22:03;0.70;;;0.70;;
10677;SDS011;5387;48.722;9.110;2023-11-19T04:24:30;0.77;;;0.77;;
10677;SDS011;5387;48.722;9.110;2023-11-19T04:26:56;0.50;;;0.50;;
10677;SDS011;5387;48.722;9.110;2023-11-19T04:29:25;0.53;;;0.53;;
10677;SDS011;5387;48.722;9.110;2023-11-19T04:31:51;1.90;;;0.70;;
10677;SDS011;5387;48.722;9.110;2023-11-19T04:34:18;0.60;;;0.60;;
10677;SDS011;5387;48.722;9.110;2023-11-19T04:36:45;0.70;;;0.70;;
10677;SDS011;5387;48.722;9.110;2023-11-19T04:39:12;0.70;;;0.70;;
10677;SDS011;5387;48.722;9.110;2023-11-19T04:41:45;1.03;;;0.60;;
10677;SDS011;5387;48.722;9.110;2023-11-19T04:44:13;0.67;;;0.67;;
10677;SDS011;5387;48.722;9.110;2023-11-19T04:46:42;0.50;;;0.50;;
10677;SDS011;5387;48.722;9.110;2023-11-19T04:49:09;0.60;;;0.60;;
10677;SDS011;5387;48.722;9.110;2023-11-19T04:51:38;0.60;;;0.60;;
10677;SDS011;5387;48.722;9.110;2023-11-19T04:54:05;0.80;;;0.80;;
10677;SDS011;5387;48.722;9.110;2023-11-19T04:56:33;1.13;;;0.80;;
10677;SDS011;5387;48.722;9.110;2023-11-19T04:59:00;0.70;;;0.70;;
10677;SDS011;5387;48.722;9.110;2023-11-19T05:01:27;0.67;;;0.67;;
10677;SDS011;5387;48.722;9.110;2023-11-19T05:03:55;0.70;;;0.70;;
10677;SDS011;5387;48.722;9.110;2023-11-19T05:06:25;0.80;;;0.80;;
10677;SDS011;5387;48.722;9.110;2023-11-19T05:08:53;1.27;;;1.10;;
10677;SDS011;5387;48.722;9.110;2023-11-19T05:11:20;1.27;;;0.80;;
10677;SDS011;5387;48.722;9.110;2023-11-19T05:13:46;0.80;;;0.80;;
10677;SDS011;5387;48.722;9.110;2023-11-19T05:16:13;0.60;;;0.60;;
10677;SDS011;5387;48.722;9.110;2023-11-19T05:18:40;1.70;;;0.80;;
10677;SDS011;5387;48.722;9.110;2023-11-19T05:21:09;1.60;;;0.70;;
10677;SDS011;5387;48.722;9.110;2023-11-19T05:23:35;0.77;;;0.77;;
10677;SDS011;5387;48.722;9.110;2023-11-19T05:26:02;0.80;;;0.80;;
10677;SDS011;5387;48.722;9.110;2023-11-19T05:28:29;0.83;;;0.83;;
10677;SDS011;5387;48.722;9.110;2023-11-19T05:30:56;1.07;;;0.80;;
10677;SDS011;5387;48.722;9.110;2023-11-19T05:33:23;0.70;;;0.70;;
10677;SDS011;5387;48.722;9.110;2023-11-19T05:35:50;0.70;;;0.70;;
10677;SDS011;5387;48.722;9.110;2023-11-19T05:38:18;0.60;;;0.60;;
10677;SDS011;5387;48.722;9.110;2023-11-19T05:40:46;0.70;;;0.70;;
10677;SDS011;5387;48.722;9.110;2023-11-19T05:43:14;0.63;;;0.63;;
10677;SDS011;5387;48.722;9.110;2023-11-19T05:45:41;3.17;;;0.80;;
10677;SDS011;5387;48.722;9.110;2023-11-19T05:48:08;0.70;;;0.70;;
10677;SDS011;5387;48.722;9.110;2023-11-19T05:50:35;0.60;;;0.60;;
10677;SDS011;5387;48.722;9.110;2023-11-19T05:53:02;2.70;;;0.77;;
10677;SDS011;5387;48.722;9.110;2023-11-19T05:55:33;0.57;;;0.57;;
10677;SDS011;5387;48.722;9.110;2023-11-19T05:58:00;0.73;;;0.73;;
10677;SDS011;5387;48.722;9.110;2023-11-19T06:00:28;0.70;;;0.70;;
10677;SDS011;5387;48.722;9.110;2023-11-19T06:02:55;0.67;;;0.67;;
10677;SDS011;5387;48.722;9.110;2023-11-19T06:05:22;2.00;;;0.70;;
10677;SDS011;5387;48.722;9.110;2023-11-19T06:07:49;0.70;;;0.70;;
10677;SDS011;5387;48.722;9.110;2023-11-19T06:10:16;0.70;;;0.70;;
10677;SDS011;5387;48.722;9.110;2023-11-19T06:12:45;0.77;;;0.77;;
10677;SDS011;5387;48.722;9.110;2023-11-19T06:15:12;0.90;;;0.90;;
10677;SDS011;5387;48.722;9.110;2023-11-19T06:17:39;0.70;;;0.70;;
10677;SDS011;5387;48.722;9.110;2023-11-19T06:20:07;0.80;;;0.80;;
10677;SDS011;5387;48.722;9.110;2023-11-19T06:22:36;0.83;;;0.80;;
10677;SDS011;5387;48.722;9.110;2023-11-19T06:25:03;0.60;;;0.60;;
10677;SDS011;5387;48.722;9.110;2023-11-19T06:27:32;0.60;;;0.60;;
10677;SDS011;5387;48.722;9.110;2023-11-19T06:30:00;0.90;;;0.90;;
10677;SDS011;5387;48.722;9.110;2023-11-19T06:32:27;0.80;;;0.80;;
10677;SDS011;5387;48.722;9.110;2023-11-19T06:34:54;0.70;;;0.70;;
10677;SDS011;5387;48.722;9.110;2023-11-19T06:37:22;0.80;;;0.80;;
10677;SDS011;5387;48.722;9.110;2023-11-19T06:39:48;0.60;;;0.60;;
10677;SDS011;5387;48.722;9.110;2023-11-19T06:42:15;0.80;;;0.80;;
10677;SDS011;5387;48.722;9.110;2023-11-19T06:44:42;0.77;;;0.77;;
10677;SDS011;5387;48.722;9.110;2023-11-19T06:47:10;0.67;;;0.67;;
10677;SDS011;5387;48.722;9.110;2023-11-19T06:49:37;0.70;;;0.70;;
10677;SDS011;5387;48.722;9.110;2023-11-19T06:52:04;0.80;;;0.80;;
10677;SDS011;5387;48.722;9.110;2023-11-19T06:54:31;2.23;;;0.70;;
10677;SDS011;5387;48.722;9.110;2023-11-19T06:56:58;0.70;;;0.70;;
10677;SDS011;5387;48.722;9.110;2023-11-19T06:59:25;2.80;;;0.77;;
10677;SDS011;5387;48.722;9.110;2023-11-19T07:01:51;0.83;;;0.83;;
10677;SDS011;5387;48.722;9.110;2023-11-19T07:04:20;0.70;;;0.70;;
10677;SDS011;5387;48.722;9.110;2023-11-19T07:06:46;0.87;;;0.87;;
10677;SDS011;5387;48.722;9.110;2023-11-19T07:09:14;0.70;;;0.70;;
10677;SDS011;5387;48.722;9.110;2023-11-19T07:11:41;0.70;;;0.70;;
10677;SDS011;5387;48.722;9.110;2023-11-19T07:14:09;0.60;;;0.60;;
10677;SDS011;5387;48.722;9.110;2023-11-19T07:16:36;1.00;;;1.00;;
10677;SDS011;5387;48.722;9.110;2023-11-19T07:19:04;2.87;;;0.90;;
10677;SDS011;5387;48.722;9.110;2023-11-19T07:21:32;0.90;;;0.90;;
10677;SDS011;5387;48.722;9.110;2023-11-19T07:24:00;1.00;;;1.00;;
10677;SDS011;5387;48.722;9.110;2023-11-19T07:26:28;1.73;;;1.10;;
10677;SDS011;5387;48.722;9.110;2023-11-19T07:28:55;3.00;;;1.00;;
10677;SDS011;5387;48.722;9.110;2023-11-19T07:31:21;1.37;;;1.30;;
10677;SDS011;5387;48.722;9.110;2023-11-19T07:33:49;3.33;;;1.70;;
10677;SDS011;5387;48.722;9.110;2023-11-19T07:36:16;1.77;;;1.33;;
10677;SDS011;5387;48.722;9.110;2023-11-19T07:38:45;1.30;;;1.20;;
10677;SDS011;5387;48.722;9.110;2023-11-19T07:41:12;3.37;;;1.37;;
10677;SDS011;5387;48.722;9.110;2023-11-19T07:43:39;4.33;;;0.90;;
10677;SDS011;5387;48.722;9.110;2023-11-19T07:46:12;0.90;;;0.90;;
10677;SDS011;5387;48.722;9.110;2023-11-19T07:48:39;3.63;;;1.00;;
10677;SDS011;5387;48.722;9.110;2023-11-19T07:51:07;0.80;;;0.80;;
10677;SDS011;5387;48.722;9.110;2023-11-19T07:53:34;0.80;;;0.80;;
10677;SDS011;5387;48.722;9.110;2023-11-19T07:56:05;1.67;;;0.80;;
10677;SDS011;5387;48.722;9.110;2023-11-19T07:58:32;1.30;;;0.80;;
10677;SDS011;5387;48.722;9.110;2023-11-19T08:00:59;1.50;;;1.00;;
10677;SDS011;5387;48.722;9.110;2023-11-19T08:03:27;2.03;;;1.00;;
10677;SDS011;5387;48.722;9.110;2023-11-19T08:05:54;5.10;;;1.27;;
10677;SDS011;5387;48.722;9.110;2023-11-19T08:08:22;0.93;;;0.93;;
10677;SDS011;5387;48.722;9.110;2023-11-19T08:10:48;2.83;;;1.40;;
10677;SDS011;5387;48.722;9.110;2023-11-19T08:13:17;1.00;;;1.00;;
10677;SDS011;5387;48.722;9.110;2023-11-19T08:15:44;0.93;;;0.93;;
10677;SDS011;5387;48.722;9.110;2023-11-19T08:18:12;0.60;;;0.60;;
10677;SDS011;5387;48.722;9.110;2023-11-19T08:20:39;0.70;;;0.70;;
10677;SDS011;5387;48.722;9.110;2023-11-19T08:23:06;0.87;;;0.87;;
10677;SDS011;5387;48.722;9.110;2023-11-19T08:25:33;1.17;;;0.97;;
10677;SDS011;5387;48.722;9.110;2023-11-19T08:28:00;0.70;;;0.70;;
10677;SDS011;5387;48.722;9.110;2023-11-19T08:30:29;2.27;;;0.93;;
10677;SDS011;5387;48.722;9.110;2023-11-19T08:32:56;0.77;;;0.77;;
10677;SDS011;5387;48.722;9.110;2023-11-19T08:35:23;0.70;;;0.70;;
10677;SDS011;5387;48.722;9.110;2023-11-19T08:37:50;1.37;;;1.07;;
10677;SDS011;5387;48.722;9.110;2023-11-19T08:40:18;1.37;;;1.00;;
10677;SDS011;5387;48.722;9.110;2023-11-19T08:42:45;0.80;;;0.80;;
10677;SDS011;5387;48.722;9.110;2023-11-19T08:45:11;1.17;;;0.93;;
10677;SDS011;5387;48.722;9.110;2023-11-19T08:47:40;1.53;;;1.00;;
10677;SDS011;5387;48.722;9.110;2023-11-19T08:50:06;2.27;;;0.93;;
10677;SDS011;5387;48.722;9.110;2023-11-19T08:52:34;0.70;;;0.70;;
10677;SDS011;5387;48.722;9.110;2023-11-19T08:55:01;2.37;;;1.27;;
10677;SDS011;5387;48.722;9.110;2023-11-19T08:57:30;1.60;;;1.50;;
10677;SDS011;5387;48.722;9.110;2023-11-19T08:59:57;0.90;;;0.90;;
10677;SDS011;5387;48.722;9.110;2023-11-19T09:02:24;1.97;;;1.10;;
10677;SDS011;5387;48.722;9.110;2023-11-19T09:04:53;0.90;;;0.90;;
10677;SDS011;5387;48.722;9.110;2023-11-19T09:07:19;1.20;;;1.20;;
10677;SDS011;5387;48.722;9.110;2023-11-19T09:09:46;1.40;;;1.20;;
10677;SDS011;5387;48.722;9.110;2023-11-19T09:12:13;1.37;;;1.07;;
10677;SDS011;5387;48.722;9.110;2023-11-19T09:14:40;1.77;;;1.47;;
10677;SDS011;5387;48.722;9.110;2023-11-19T09:17:07;1.40;;;1.30;;
10677;SDS011;5387;48.722;9.110;2023-11-19T09:19:34;1.20;;;1.10;;
10677;SDS011;5387;48.722;9.110;2023-11-19T09:22:03;1.97;;;1.20;;
10677;SDS011;5387;48.722;9.110;2023-11-19T09:24:30;2.80;;;0.90;;
10677;SDS011;5387;48.722;9.110;2023-11-19T09:26:56;1.27;;;1.00;;
10677;SDS011;5387;48.722;9.110;2023-11-19T09:29:23;0.93;;;0.90;;
10677;SDS011;5387;48.722;9.110;2023-11-19T09:31:50;1.00;;;0.93;;
10677;SDS011;5387;48.722;9.110;2023-11-19T09:34:17;1.10;;;1.00;;
10677;SDS011;5387;48.722;9.110;2023-11-19T09:36:43;3.13;;;0.90;;
10677;SDS011;5387;48.722;9.110;2023-11-19T09:39:12;1.27;;;1.10;;
10677;SDS011;5387;48.722;9.110;2023-11-19T09:41:40;0.90;;;0.90;;
10677;SDS011;5387;48.722;9.110;2023-11-19T09:44:07;0.70;;;0.70;;
10677;SDS011;5387;48.722;9.110;2023-11-19T09:46:35;0.80;;;0.80;;
10677;SDS011;5387;48.722;9.110;2023-11-19T09:49:02;0.90;;;0.90;;
10677;SDS011;5387;48.722;9.110;2023-11-19T09:51:32;0.77;;;0.77;;
10677;SDS011;5387;48.722;9.110;2023-11-19T09:53:59;0.77;;;0.77;;
10677;SDS011;5387;48.722;9.110;2023-11-19T09:56:27;0.90;;;0.77;;
10677;SDS011;5387;48.722;9.110;2023-11-19T09:58:55;1.13;;;0.97;;
10677;SDS011;5387;48.722;9.110;2023-11-19T10:01:22;0.70;;;0.70;;
10677;SDS011;5387;48.722;9.110;2023-11-19T10:03:49;0.70;;;0.70;;
10677;SDS011;5387;48.722;9.110;2023-11-19T10:06:18;1.67;;;1.00;;
10677;SDS011;5387;48.722;9.110;2023-11-19T10:08:45;0.90;;;0.90;;
10677;SDS011;5387;48.722;9.110;2023-11-19T10:11:12;1.10;;;0.97;;
10677;SDS011;5387;48.722;9.110;2023-11-19T10:13:41;0.83;;;0.83;;
10677;SDS011;5387;48.722;9.110;2023-11-19T10:16:10;0.77;;;0.77;;
10677;SDS011;5387;48.722;9.110;2023-11-19T10:18:42;1.07;;;1.00;;
10677;SDS011;5387;48.722;9.110;2023-11-19T10:21:11;0.87;;;0.87;;
10677;SDS011;5387;48.722;9.110;2023-11-19T10:23:48;0.73;;;0.73;;
10677;SDS011;5387;48.722;9.110;2023-11-19T10:26:16;0.80;;;0.80;;
10677;SDS011;5387;48.722;9.110;2023-11-19T10:28:45;0.80;;;0.80;;
10677;SDS011;5387;48.722;9.110;2023-11-19T10:31:12;1.00;;;0.90;;
10677;SDS011;5387;48.722;9.110;2023-11-19T10:33:39;1.10;;;1.00;;
10677;SDS011;5387;48.722;9.110;2023-11-19T10:36:06;2.17;;;0.80;;
10677;SDS011;5387;48.722;9.110;2023-11-19T10:38:33;0.80;;;0.80;;
10677;SDS011;5387;48.722;9.110;2023-11-19T10:41:00;0.70;;;0.70;;
10677;SDS011;5387;48.722;9.110;2023-11-19T10:43:27;0.70;;;0.70;;
10677;SDS011;5387;48.722;9.110;2023-11-19T10:45:56;0.87;;;0.87;;
10677;SDS011;5387;48.722;9.110;2023-11-19T10:48:35;3.63;;;1.13;;
10677;SDS011;5387;48.722;9.110;2023-11-19T10:51:02;2.47;;;0.80;;
10677;SDS011;5387;48.722;9.110;2023-11-19T10:53:33;0.63;;;0.63;;
10677;SDS011;5387;48.722;9.110;2023-11-19T10:56:04;0.77;;;0.77;;
10677;SDS011;5387;48.722;9.110;2023-11-19T10:58:36;0.80;;;0.80;;
10677;SDS011;5387;48.722;9.110;2023-11-19T11:01:09;0.80;;;0.80;;
10677;SDS011;5387;48.722;9.110;2023-11-19T11:03:40;2.40;;;0.70;;
10677;SDS011;5387;48.722;9.110;2023-11-19T11:06:08;1.40;;;1.23;;
10677;SDS011;5387;48.722;9.110;2023-11-19T11:08:37;1.90;;;0.80;;
10677;SDS011;5387;48.722;9.110;2023-11-19T11:11:05;0.77;;;0.77;;
10677;SDS011;5387;48.722;9.110;2023-11-19T11:13:33;0.75;;;0.75;;
10677;SDS011;5387;48.722;9.110;2023-11-19T11:16:01;0.98;;;0.77;;
10677;SDS011;5387;48.722;9.110;2023-11-19T11:18:33;0.80;;;0.80;;
10677;SDS011;5387;48.722;9.110;2023-11-19T11:21:00;3.00;;;1.00;;
10677;SDS011;5387;48.722;9.110;2023-11-19T11:26:32;1.02;;;0.90;;
10677;SDS011;5387;48.722;9.110;2023-11-19T11:29:10;2.08;;;0.65;;
10677;SDS011;5387;48.722;9.110;2023-11-19T11:31:48;2.65;;;0.90;;
10677;SDS011;5387;48.722;9.110;2023-11-19T11:34:31;2.00;;;0.97;;
10677;SDS011;5387;48.722;9.110;2023-11-19T11:37:10;0.98;;;0.80;;
10677;SDS011;5387;48.722;9.110;2023-11-19T11:39:44;2.63;;;0.90;;
10677;SDS011;5387;48.722;9.110;2023-11-19T11:42:31;3.60;;;0.93;;
10677;SDS011;5387;48.722;9.110;2023-11-19T11:44:59;1.70;;;0.88;;
10677;SDS011;5387;48.722;9.110;2023-11-19T11:50:32;1.13;;;1.02;;
10677;SDS011;5387;48.722;9.110;2023-11-19T11:53:14;2.80;;;1.35;;
10677;SDS011;5387;48.722;9.110;2023-11-19T11:55:57;0.80;;;0.80;;
10677;SDS011;5387;48.722;9.110;2023-11-19T11:58:26;0.80;;;0.80;;
10677;SDS011;5387;48.722;9.110;2023-11-19T12:00:58;1.08;;;0.90;;
10677;SDS011;5387;48.722;9.110;2023-11-19T12:03:27;3.33;;;0.90;;
10677;SDS011;5387;48.722;9.110;2023-11-19T12:05:56;1.40;;;1.30;;
10677;SDS011;5387;48.722;9.110;2023-11-19T12:08:27;4.43;;;1.00;;
10677;SDS011;5387;48.722;9.110;2023-11-19T12:10:55;6.15;;;2.80;;
10677;SDS011;5387;48.722;9.110;2023-11-19T12:13:24;1.25;;;1.15;;
10677;SDS011;5387;48.722;9.110;2023-11-19T12:16:08;1.25;;;1.10;;
10677;SDS011;5387;48.722;9.110;2023-11-19T12:18:35;3.17;;;1.70;;
10677;SDS011;5387;48.722;9.110;2023-11-19T12:21:06;1.40;;;0.88;;
10677;SDS011;5387;48.722;9.110;2023-11-19T12:23:34;4.50;;;1.85;;
10677;SDS011;5387;48.722;9.110;2023-11-19T12:26:01;1.23;;;1.10;;
10677;SDS011;5387;48.722;9.110;2023-11-19T12:28:28;0.90;;;0.90;;
10677;SDS011;5387;48.722;9.110;2023-11-19T12:31:07;1.73;;;1.10;;
10677;SDS011;5387;48.722;9.110;2023-11-19T12:33:35;1.73;;;1.40;;
10677;SDS011;5387;48.722;9.110;2023-11-19T12:36:03;1.63;;;1.30;;
10677;SDS011;5387;48.722;9.110;2023-11-19T12:38:32;3.78;;;0.93;;
10677;SDS011;5387;48.722;9.110;2023-11-19T12:41:05;2.50;;;0.90;;
10677;SDS011;5387;48.722;9.110;2023-11-19T12:43:35;3.60;;;1.60;;
10677;SDS011;5387;48.722;9.110;2023-11-19T12:46:02;1.42;;;1.27;;
10677;SDS011;5387;48.722;9.110;2023-11-19T12:48:30;2.95;;;1.52;;
10677;SDS011;5387;48.722;9.110;2023-11-19T12:50:57;1.38;;;1.27;;
10677;SDS011;5387;48.722;9.110;2023-11-19T12:53:24;2.53;;;1.10;;
10677;SDS011;5387;48.722;9.110;2023-11-19T12:55:53;1.63;;;1.17;;
10677;SDS011;5387;48.722;9.110;2023-11-19T12:58:28;1.95;;;1.17;;
10677;SDS011;5387;48.722;9.110;2023-11-19T13:00:59;0.75;;;0.75;;
10677;SDS011;5387;48.722;9.110;2023-11-19T13:03:30;1.00;;;1.00;;
10677;SDS011;5387;48.722;9.110;2023-11-19T13:06:04;0.88;;;0.88;;
10677;SDS011;5387;48.722;9.110;2023-11-19T13:08:36;1.17;;;1.10;;
10677;SDS011;5387;48.722;9.110;2023-11-19T13:11:05;3.30;;;1.27;;
10677;SDS011;5387;48.722;9.110;2023-11-19T13:16:22;0.85;;;0.85;;
10677;SDS011;5387;48.722;9.110;2023-11-19T13:18:49;1.58;;;1.27;;
10677;SDS011;5387;48.722;9.110;2023-11-19T13:21:16;3.23;;;1.00;;
10677;SDS011;5387;48.722;9.110;2023-11-19T13:23:43;4.13;;;1.00;;
10677;SDS011;5387;48.722;9.110;2023-11-19T13:26:11;2.70;;;1.60;;
10677;SDS011;5387;48.722;9.110;2023-11-19T13:28:38;3.70;;;1.70;;
10677;SDS011;5387;48.722;9.110;2023-11-19T13:31:05;4.82;;;1.40;;
10677;SDS011;5387;48.722;9.110;2023-11-19T13:33:32;3.80;;;1.67;;
10677;SDS011;5387;48.722;9.110;2023-11-19T13:36:01;0.90;;;0.90;;
10677;SDS011;5387;48.722;9.110;2023-11-19T13:38:30;1.00;;;0.98;;
10677;SDS011;5387;48.722;9.110;2023-11-19T13:40:57;2.00;;;1.73;;
10677;SDS011;5387;48.722;9.110;2023-11-19T13:43:26;1.00;;;1.00;;
10677;SDS011;5387;48.722;9.110;2023-11-19T13:45:53;4.28;;;0.90;;
10677;SDS011;5387;48.722;9.110;2023-11-19T13:48:20;1.73;;;1.30;;
10677;SDS011;5387;48.722;9.110;2023-11-19T13:50:47;1.00;;;0.97;;
10677;SDS011;5387;48.722;9.110;2023-11-19T13:53:14;1.50;;;0.97;;
10677;SDS011;5387;48.722;9.110;2023-11-19T13:55:41;1.33;;;1.00;;
10677;SDS011;5387;48.722;9.110;2023-11-19T13:58:08;0.97;;;0.90;;
10677;SDS011;5387;48.722;9.110;2023-11-19T14:00:36;1.77;;;1.20;;
10677;SDS011;5387;48.722;9.110;2023-11-19T14:03:03;1.57;;;1.37;;
10677;SDS011;5387;48.722;9.110;2023-11-19T14:05:30;1.17;;;0.80;;
10677;SDS011;5387;48.722;9.110;2023-11-19T14:07:57;1.30;;;0.87;;
10677;SDS011;5387;48.722;9.110;2023-11-19T14:10:24;0.83;;;0.83;;
10677;SDS011;5387;48.722;9.110;2023-11-19T14:12:50;1.23;;;1.03;;
10677;SDS011;5387;48.722;9.110;2023-11-19T14:15:17;3.15;;;1.48;;
10677;SDS011;5387;48.722;9.110;2023-11-19T14:17:46;1.80;;;1.20;;
10677;SDS011;5387;48.722;9.110;2023-11-19T14:20:12;1.13;;;1.10;;
10677;SDS011;5387;48.722;9.110;2023-11-19T14:22:42;2.42;;;1.20;;
10677;SDS011;5387;48.722;9.110;2023-11-19T14:25:13;2.13;;;1.40;;
10677;SDS011;5387;48.722;9.110;2023-11-19T14:27:41;1.27;;;1.17;;
10677;SDS011;5387;48.722;9.110;2023-11-19T14:30:08;0.97;;;0.90;;
10677;SDS011;5387;48.722;9.110;2023-11-19T14:32:37;1.53;;;0.90;;
10677;SDS011;5387;48.722;9.110;2023-11-19T14:35:06;1.97;;;1.23;;
10677;SDS011;5387;48.722;9.110;2023-11-19T14:37:33;2.67;;;1.10;;
10677;SDS011;5387;48.722;9.110;2023-11-19T14:40:00;2.60;;;1.20;;
10677;SDS011;5387;48.722;9.110;2023-11-19T14:42:29;2.00;;;1.17;;
10677;SDS011;5387;48.722;9.110;2023-11-19T14:44:56;1.27;;;1.07;;
10677;SDS011;5387;48.722;9.110;2023-11-19T14:47:23;1.93;;;1.13;;
10677;SDS011;5387;48.722;9.110;2023-11-19T14:49:50;0.87;;;0.87;;
10677;SDS011;5387;48.722;9.110;2023-11-19T14:52:18;2.63;;;1.13;;
10677;SDS011;5387;48.722;9.110;2023-11-19T14:54:45;0.80;;;0.80;;
10677;SDS011;5387;48.722;9.110;2023-11-19T14:57:12;2.33;;;1.10;;
10677;SDS011;5387;48.722;9.110;2023-11-19T14:59:39;1.40;;;1.17;;
10677;SDS011;5387;48.722;9.110;2023-11-19T15:02:06;2.63;;;0.97;;
10677;SDS011;5387;48.722;9.110;2023-11-19T15:04:33;3.03;;;1.50;;
10677;SDS011;5387;48.722;9.110;2023-11-19T15:07:00;1.87;;;1.43;;
10677;SDS011;5387;48.722;9.110;2023-11-19T15:09:29;1.40;;;1.30;;
10677;SDS011;5387;48.722;9.110;2023-11-19T15:11:57;1.80;;;1.30;;
10677;SDS011;5387;48.722;9.110;2023-11-19T15:14:24;1.20;;;1.10;;